sensor_id;sensor_type;location;lat;lon;timestamp;temperature;humidity
10512;DHT22;5304;48.604;2.096;2024-03-06T05:06:34;6.40;99.90
10512;DHT22;5304;48.604;2.096;2024-03-06T05:09:18;6.40;99.90
10512;DHT22;5304;48.604;2.096;2024-03-06T05:12:03;6.40;99.90
10512;DHT22;5304;48.604;2.096;2024-03-06T05:14:48;6.40;99.90
10512;DHT22;5304;48.604;2.096;2024-03-06T05:17:33;6.40;99.90
10512;DHT22;5304;48.604;2.096;2024-03-06T05:20:17;6.40;99.90
10512;DHT22;5304;48.604;2.096;2024-03-06T05:23:01;6.30;99.90
10512;DHT22;5304;48.604;2.096;2024-03-06T05:25:46;6.30;99.90
10512;DHT22;5304;48.604;2.096;2024-03-06T05:28:31;6.40;99.90
10512;DHT22;5304;48.604;2.096;2024-03-06T05:31:17;6.40;99.90
10512;DHT22;5304;48.604;2.096;2024-03-06T05:34:05;6.40;99.90
10512;DHT22;5304;48.604;2.096;2024-03-06T05:36:49;6.40;99.90
10512;DHT22;5304;48.604;2.096;2024-03-06T05:39:33;6.40;99.90
10512;DHT22;5304;48.604;2.096;2024-03-06T05:42:17;6.40;99.90
10512;DHT22;5304;48.604;2.096;2024-03-06T05:45:02;6.40;99.90
10512;DHT22;5304;48.604;2.096;2024-03-06T05:47:49;6.40;99.90
10512;DHT22;5304;48.604;2.096;2024-03-06T05:50:33;6.40;99.90
10512;DHT22;5304;48.604;2.096;2024-03-06T05:53:18;6.30;99.90
10512;DHT22;5304;48.604;2.096;2024-03-06T05:56:07;6.30;99.90
10512;DHT22;5304;48.604;2.096;2024-03-06T05:58:51;6.30;99.90
10512;DHT22;5304;48.604;2.096;2024-03-06T06:01:35;6.30;99.90
10512;DHT22;5304;48.604;2.096;2024-03-06T06:04:19;6.20;99.90
10512;DHT22;5304;48.604;2.096;2024-03-06T06:07:04;6.30;99.90
10512;DHT22;5304;48.604;2.096;2024-03-06T06:09:48;6.30;99.90
10512;DHT22;5304;48.604;2.096;2024-03-06T06:12:32;6.20;99.90
10512;DHT22;5304;48.604;2.096;2024-03-06T06:15:16;6.30;99.90
10512;DHT22;5304;48.604;2.096;2024-03-06T06:18:01;6.30;99.90
10512;DHT22;5304;48.604;2.096;2024-03-06T06:20:45;6.30;99.90
10512;DHT22;5304;48.604;2.096;2024-03-06T06:23:30;6.30;99.90
10512;DHT22;5304;48.604;2.096;2024-03-06T06:26:14;6.20;99.90
10512;DHT22;5304;48.604;2.096;2024-03-06T06:28:59;6.30;99.90
10512;DHT22;5304;48.604;2.096;2024-03-06T06:31:43;6.30;99.90
10512;DHT22;5304;48.604;2.096;2024-03-06T06:34:28;6.20;99.90
10512;DHT22;5304;48.604;2.096;2024-03-06T06:37:13;6.20;99.90
10512;DHT22;5304;48.604;2.096;2024-03-06T06:39:58;6.20;99.90
10512;DHT22;5304;48.604;2.096;2024-03-06T06:42:48;6.10;99.90
10512;DHT22;5304;48.604;2.096;2024-03-06T06:45:34;6.10;99.90
10512;DHT22;5304;48.604;2.096;2024-03-06T06:48:18;6.30;99.90
10512;DHT22;5304;48.604;2.096;2024-03-06T06:51:03;6.20;99.90
10512;DHT22;5304;48.604;2.096;2024-03-06T06:53:47;6.30;99.90
10512;DHT22;5304;48.604;2.096;2024-03-06T06:56:32;6.30;99.90
10512;DHT22;5304;48.604;2.096;2024-03-06T06:59:16;6.30;99.90
10512;DHT22;5304;48.604;2.096;2024-03-06T07:02:02;6.40;99.90
10512;DHT22;5304;48.604;2.096;2024-03-06T07:04:46;6.40;99.90
10512;DHT22;5304;48.604;2.096;2024-03-06T07:07:31;6.30;99.90
10512;DHT22;5304;48.604;2.096;2024-03-06T07:10:15;6.30;99.90
10512;DHT22;5304;48.604;2.096;2024-03-06T07:12:59;6.40;99.90
10512;DHT22;5304;48.604;2.096;2024-03-06T07:15:44;6.40;99.90
10512;DHT22;5304;48.604;2.096;2024-03-06T07:18:28;6.40;99.90
10512;DHT22;5304;48.604;2.096;2024-03-06T07:21:12;6.30;99.90
10512;DHT22;5304;48.604;2.096;2024-03-06T07:23:57;6.40;99.90
10512;DHT22;5304;48.604;2.096;2024-03-06T07:26:42;6.50;99.90
10512;DHT22;5304;48.604;2.096;2024-03-06T07:29:26;6.40;99.90
10512;DHT22;5304;48.604;2.096;2024-03-06T07:32:10;6.60;99.90
10512;DHT22;5304;48.604;2.096;2024-03-06T07:34:55;6.60;99.90
10512;DHT22;5304;48.604;2.096;2024-03-06T07:37:39;6.70;99.90
10512;DHT22;5304;48.604;2.096;2024-03-06T07:40:23;6.80;99.90
10512;DHT22;5304;48.604;2.096;2024-03-06T07:43:07;6.80;99.90
10512;DHT22;5304;48.604;2.096;2024-03-06T07:45:53;6.90;99.90
10512;DHT22;5304;48.604;2.096;2024-03-06T07:48:37;7.00;99.90
10512;DHT22;5304;48.604;2.096;2024-03-06T07:51:21;7.10;99.90
10512;DHT22;5304;48.604;2.096;2024-03-06T07:54:06;7.20;99.90
10512;DHT22;5304;48.604;2.096;2024-03-06T07:56:50;7.20;99.90
10512;DHT22;5304;48.604;2.096;2024-03-06T07:59:35;7.20;99.90
10512;DHT22;5304;48.604;2.096;2024-03-06T08:02:19;7.30;99.90
10512;DHT22;5304;48.604;2.096;2024-03-06T08:05:03;7.40;99.90
10512;DHT22;5304;48.604;2.096;2024-03-06T08:07:48;7.50;99.90
10512;DHT22;5304;48.604;2.096;2024-03-06T08:10:32;7.60;99.90
10512;DHT22;5304;48.604;2.096;2024-03-06T08:13:17;7.70;99.90
10512;DHT22;5304;48.604;2.096;2024-03-06T08:16:05;7.80;99.90
10512;DHT22;5304;48.604;2.096;2024-03-06T08:18:49;7.70;99.90
10512;DHT22;5304;48.604;2.096;2024-03-06T08:21:34;7.60;99.90
10512;DHT22;5304;48.604;2.096;2024-03-06T08:24:18;7.60;99.90
10512;DHT22;5304;48.604;2.096;2024-03-06T08:27:02;7.60;99.90
10512;DHT22;5304;48.604;2.096;2024-03-06T08:29:47;7.80;99.90
10512;DHT22;5304;48.604;2.096;2024-03-06T08:32:33;8.00;99.90
10512;DHT22;5304;48.604;2.096;2024-03-06T08:35:19;8.10;99.90
10512;DHT22;5304;48.604;2.096;2024-03-06T08:38:05;8.60;99.90
10512;DHT22;5304;48.604;2.096;2024-03-06T08:40:50;9.40;99.90
10512;DHT22;5304;48.604;2.096;2024-03-06T08:43:34;10.10;99.90
10512;DHT22;5304;48.604;2.096;2024-03-06T08:46:18;10.50;99.90
10512;DHT22;5304;48.604;2.096;2024-03-06T08:49:03;11.20;99.90
10512;DHT22;5304;48.604;2.096;2024-03-06T08:51:47;12.20;99.90
10512;DHT22;5304;48.604;2.096;2024-03-06T08:54:31;12.20;99.90
10512;DHT22;5304;48.604;2.096;2024-03-06T08:57:16;12.60;99.90
10512;DHT22;5304;48.604;2.096;2024-03-06T09:00:01;12.40;99.90
10512;DHT22;5304;48.604;2.096;2024-03-06T09:02:46;11.90;99.90
10512;DHT22;5304;48.604;2.096;2024-03-06T09:05:30;11.90;99.90
10512;DHT22;5304;48.604;2.096;2024-03-06T09:08:17;12.30;99.90
10512;DHT22;5304;48.604;2.096;2024-03-06T09:11:01;13.20;99.90
10512;DHT22;5304;48.604;2.096;2024-03-06T09:13:46;14.20;99.90
10512;DHT22;5304;48.604;2.096;2024-03-06T09:16:30;14.70;99.90
10512;DHT22;5304;48.604;2.096;2024-03-06T09:19:15;14.90;99.90
10512;DHT22;5304;48.604;2.096;2024-03-06T09:21:59;14.60;99.90
10512;DHT22;5304;48.604;2.096;2024-03-06T09:24:43;14.50;99.90
10512;DHT22;5304;48.604;2.096;2024-03-06T09:27:27;14.60;99.90
10512;DHT22;5304;48.604;2.096;2024-03-06T09:30:12;15.20;99.90
10512;DHT22;5304;48.604;2.096;2024-03-06T09:32:57;15.50;99.90
10512;DHT22;5304;48.604;2.096;2024-03-06T09:35:42;14.80;99.90
10512;DHT22;5304;48.604;2.096;2024-03-06T09:38:29;14.10;99.90
10512;DHT22;5304;48.604;2.096;2024-03-06T09:41:14;13.60;99.90
10512;DHT22;5304;48.604;2.096;2024-03-06T09:43:59;13.90;99.90
10512;DHT22;5304;48.604;2.096;2024-03-06T09:46:45;14.20;99.90
10512;DHT22;5304;48.604;2.096;2024-03-06T09:49:29;13.60;99.90
10512;DHT22;5304;48.604;2.096;2024-03-06T09:52:14;13.50;99.90
10512;DHT22;5304;48.604;2.096;2024-03-06T09:54:59;13.00;99.90
10512;DHT22;5304;48.604;2.096;2024-03-06T09:57:44;12.60;99.90
10512;DHT22;5304;48.604;2.096;2024-03-06T10:00:29;12.60;99.90
10512;DHT22;5304;48.604;2.096;2024-03-06T10:03:16;12.70;99.90
10512;DHT22;5304;48.604;2.096;2024-03-06T10:06:00;12.90;99.90
10512;DHT22;5304;48.604;2.096;2024-03-06T10:08:45;13.00;99.90
10512;DHT22;5304;48.604;2.096;2024-03-06T10:11:30;12.60;99.90
10512;DHT22;5304;48.604;2.096;2024-03-06T10:14:16;12.60;99.90
10512;DHT22;5304;48.604;2.096;2024-03-06T10:17:00;12.60;99.90
10512;DHT22;5304;48.604;2.096;2024-03-06T10:19:45;12.30;99.90
10512;DHT22;5304;48.604;2.096;2024-03-06T10:22:35;12.00;99.90
10512;DHT22;5304;48.604;2.096;2024-03-06T10:25:20;11.90;99.90
10512;DHT22;5304;48.604;2.096;2024-03-06T10:28:10;11.60;99.90
10512;DHT22;5304;48.604;2.096;2024-03-06T10:31:03;11.70;99.90
10512;DHT22;5304;48.604;2.096;2024-03-06T10:33:48;11.90;99.90
10512;DHT22;5304;48.604;2.096;2024-03-06T10:36:32;12.10;99.90
10512;DHT22;5304;48.604;2.096;2024-03-06T10:39:18;11.90;99.90
10512;DHT22;5304;48.604;2.096;2024-03-06T10:42:06;11.60;99.90
10512;DHT22;5304;48.604;2.096;2024-03-06T10:44:55;11.80;99.90
10512;DHT22;5304;48.604;2.096;2024-03-06T10:47:46;11.90;99.90
10512;DHT22;5304;48.604;2.096;2024-03-06T10:50:35;11.90;99.90
10512;DHT22;5304;48.604;2.096;2024-03-06T10:53:19;11.50;99.90
10512;DHT22;5304;48.604;2.096;2024-03-06T10:56:04;11.90;99.90
10512;DHT22;5304;48.604;2.096;2024-03-06T10:58:54;12.20;99.90
10512;DHT22;5304;48.604;2.096;2024-03-06T11:01:40;12.20;99.90
10512;DHT22;5304;48.604;2.096;2024-03-06T11:04:29;12.50;99.90
10512;DHT22;5304;48.604;2.096;2024-03-06T11:07:15;12.70;99.90
10512;DHT22;5304;48.604;2.096;2024-03-06T11:09:59;13.00;99.90
10512;DHT22;5304;48.604;2.096;2024-03-06T11:12:44;12.80;99.90
10512;DHT22;5304;48.604;2.096;2024-03-06T11:15:30;12.40;99.90
10512;DHT22;5304;48.604;2.096;2024-03-06T11:27:01;11.20;99.90
10512;DHT22;5304;48.604;2.096;2024-03-06T11:33:01;10.80;99.90
10512;DHT22;5304;48.604;2.096;2024-03-06T11:36:14;10.60;99.90
10512;DHT22;5304;48.604;2.096;2024-03-06T11:39:05;11.30;99.90
10512;DHT22;5304;48.604;2.096;2024-03-06T11:41:50;11.90;99.90
10512;DHT22;5304;48.604;2.096;2024-03-06T11:44:35;12.30;99.90
10512;DHT22;5304;48.604;2.096;2024-03-06T11:47:19;12.60;99.90
10512;DHT22;5304;48.604;2.096;2024-03-06T11:50:06;12.90;99.90
10512;DHT22;5304;48.604;2.096;2024-03-06T11:52:52;13.20;99.90
10512;DHT22;5304;48.604;2.096;2024-03-06T11:55:39;13.40;99.90
10512;DHT22;5304;48.604;2.096;2024-03-06T11:58:24;13.80;99.90
10512;DHT22;5304;48.604;2.096;2024-03-06T12:01:07;14.00;99.90
10512;DHT22;5304;48.604;2.096;2024-03-06T12:03:53;13.30;99.90
10512;DHT22;5304;48.604;2.096;2024-03-06T12:06:38;12.40;99.90
10512;DHT22;5304;48.604;2.096;2024-03-06T12:09:23;12.10;99.90
10512;DHT22;5304;48.604;2.096;2024-03-06T12:12:07;12.00;99.90
10512;DHT22;5304;48.604;2.096;2024-03-06T12:14:58;11.70;99.90
10512;DHT22;5304;48.604;2.096;2024-03-06T12:17:45;11.50;99.90
10512;DHT22;5304;48.604;2.096;2024-03-06T12:20:34;11.40;99.90
10512;DHT22;5304;48.604;2.096;2024-03-06T12:23:20;11.30;99.90
10512;DHT22;5304;48.604;2.096;2024-03-06T12:26:08;11.20;99.90
10512;DHT22;5304;48.604;2.096;2024-03-06T12:29:07;11.00;99.90
10512;DHT22;5304;48.604;2.096;2024-03-06T12:31:51;10.70;99.90
10512;DHT22;5304;48.604;2.096;2024-03-06T12:34:35;10.90;99.90
10512;DHT22;5304;48.604;2.096;2024-03-06T12:37:19;11.10;99.90
10512;DHT22;5304;48.604;2.096;2024-03-06T12:40:03;11.20;99.90
10512;DHT22;5304;48.604;2.096;2024-03-06T12:42:57;11.40;99.90
10512;DHT22;5304;48.604;2.096;2024-03-06T12:45:42;11.50;99.90
10512;DHT22;5304;48.604;2.096;2024-03-06T12:48:26;11.60;99.90
10512;DHT22;5304;48.604;2.096;2024-03-06T12:51:13;11.70;99.90
10512;DHT22;5304;48.604;2.096;2024-03-06T12:53:57;11.90;99.90
10512;DHT22;5304;48.604;2.096;2024-03-06T12:56:42;12.30;99.90
10512;DHT22;5304;48.604;2.096;2024-03-06T12:59:26;12.70;99.90
10512;DHT22;5304;48.604;2.096;2024-03-06T13:02:11;12.90;99.90
10512;DHT22;5304;48.604;2.096;2024-03-06T13:04:55;12.70;99.90
10512;DHT22;5304;48.604;2.096;2024-03-06T13:07:39;12.30;99.90
10512;DHT22;5304;48.604;2.096;2024-03-06T13:10:26;12.20;99.90
10512;DHT22;5304;48.604;2.096;2024-03-06T13:13:10;12.10;99.90
10512;DHT22;5304;48.604;2.096;2024-03-06T13:15:55;11.80;99.90
10512;DHT22;5304;48.604;2.096;2024-03-06T13:18:40;11.60;99.90
10512;DHT22;5304;48.604;2.096;2024-03-06T13:21:24;11.30;99.90
10512;DHT22;5304;48.604;2.096;2024-03-06T13:24:08;11.10;99.90
10512;DHT22;5304;48.604;2.096;2024-03-06T13:26:52;11.00;99.90
10512;DHT22;5304;48.604;2.096;2024-03-06T13:29:37;10.90;99.90
10512;DHT22;5304;48.604;2.096;2024-03-06T13:32:21;11.00;99.90
10512;DHT22;5304;48.604;2.096;2024-03-06T13:35:06;10.90;99.90
10512;DHT22;5304;48.604;2.096;2024-03-06T13:37:53;11.00;99.90
10512;DHT22;5304;48.604;2.096;2024-03-06T13:40:37;10.90;99.90
10512;DHT22;5304;48.604;2.096;2024-03-06T13:43:23;11.00;99.90
10512;DHT22;5304;48.604;2.096;2024-03-06T13:46:08;11.00;99.90
10512;DHT22;5304;48.604;2.096;2024-03-06T13:48:52;11.00;99.90
10512;DHT22;5304;48.604;2.096;2024-03-06T13:51:36;11.00;99.90
10512;DHT22;5304;48.604;2.096;2024-03-06T13:54:21;11.00;99.90
10512;DHT22;5304;48.604;2.096;2024-03-06T13:57:05;11.20;99.90
10512;DHT22;5304;48.604;2.096;2024-03-06T13:59:50;11.20;99.90
10512;DHT22;5304;48.604;2.096;2024-03-06T14:02:34;10.90;99.90
10512;DHT22;5304;48.604;2.096;2024-03-06T14:05:19;11.00;99.90
10512;DHT22;5304;48.604;2.096;2024-03-06T14:08:08;10.90;99.90
10512;DHT22;5304;48.604;2.096;2024-03-06T14:10:56;10.90;99.90
10512;DHT22;5304;48.604;2.096;2024-03-06T14:13:40;10.70;99.90
10512;DHT22;5304;48.604;2.096;2024-03-06T14:16:24;10.60;99.90
10512;DHT22;5304;48.604;2.096;2024-03-06T14:19:08;10.70;99.90
10512;DHT22;5304;48.604;2.096;2024-03-06T14:21:53;10.70;99.90
10512;DHT22;5304;48.604;2.096;2024-03-06T14:24:37;10.80;99.90
10512;DHT22;5304;48.604;2.096;2024-03-06T14:27:21;10.80;99.90
10512;DHT22;5304;48.604;2.096;2024-03-06T14:30:06;10.90;99.90
10512;DHT22;5304;48.604;2.096;2024-03-06T14:32:58;10.80;99.90
10512;DHT22;5304;48.604;2.096;2024-03-06T14:35:43;10.60;99.90
10512;DHT22;5304;48.604;2.096;2024-03-06T14:38:29;10.60;99.90
10512;DHT22;5304;48.604;2.096;2024-03-06T14:41:14;10.40;99.90
10512;DHT22;5304;48.604;2.096;2024-03-06T14:43:58;10.50;99.90
10512;DHT22;5304;48.604;2.096;2024-03-06T14:46:42;10.50;99.90
10512;DHT22;5304;48.604;2.096;2024-03-06T14:49:27;10.60;99.90
10512;DHT22;5304;48.604;2.096;2024-03-06T14:52:12;10.60;99.90
10512;DHT22;5304;48.604;2.096;2024-03-06T14:54:57;10.60;99.90
10512;DHT22;5304;48.604;2.096;2024-03-06T14:57:41;10.70;99.90
10512;DHT22;5304;48.604;2.096;2024-03-06T15:00:25;10.90;99.90
10512;DHT22;5304;48.604;2.096;2024-03-06T15:03:09;11.30;99.90
10512;DHT22;5304;48.604;2.096;2024-03-06T15:05:54;11.40;99.90
10512;DHT22;5304;48.604;2.096;2024-03-06T15:08:38;11.40;99.90
10512;DHT22;5304;48.604;2.096;2024-03-06T15:11:23;11.10;99.90
10512;DHT22;5304;48.604;2.096;2024-03-06T15:14:08;11.10;99.90
10512;DHT22;5304;48.604;2.096;2024-03-06T15:16:53;11.10;99.90
10512;DHT22;5304;48.604;2.096;2024-03-06T15:19:37;11.20;99.90
10512;DHT22;5304;48.604;2.096;2024-03-06T15:22:21;11.20;99.90
10512;DHT22;5304;48.604;2.096;2024-03-06T15:25:06;11.30;99.90
10512;DHT22;5304;48.604;2.096;2024-03-06T15:27:51;11.30;99.90
10512;DHT22;5304;48.604;2.096;2024-03-06T15:30:36;11.20;99.90
10512;DHT22;5304;48.604;2.096;2024-03-06T15:33:21;11.10;99.90
10512;DHT22;5304;48.604;2.096;2024-03-06T15:36:05;10.90;99.90
10512;DHT22;5304;48.604;2.096;2024-03-06T15:38:49;10.90;99.90
10512;DHT22;5304;48.604;2.096;2024-03-06T15:41:33;10.90;99.90
10512;DHT22;5304;48.604;2.096;2024-03-06T15:44:18;11.00;99.90
10512;DHT22;5304;48.604;2.096;2024-03-06T15:47:02;10.70;99.90
10512;DHT22;5304;48.604;2.096;2024-03-06T15:49:48;10.60;99.90
10512;DHT22;5304;48.604;2.096;2024-03-06T15:52:32;10.50;99.90
10512;DHT22;5304;48.604;2.096;2024-03-06T15:55:16;10.40;99.90
10512;DHT22;5304;48.604;2.096;2024-03-06T15:58:02;10.50;99.90
10512;DHT22;5304;48.604;2.096;2024-03-06T16:00:47;10.50;99.90
10512;DHT22;5304;48.604;2.096;2024-03-06T16:03:32;10.50;99.90
10512;DHT22;5304;48.604;2.096;2024-03-06T16:06:17;10.40;99.90
10512;DHT22;5304;48.604;2.096;2024-03-06T16:09:01;10.60;99.90
10512;DHT22;5304;48.604;2.096;2024-03-06T16:11:46;10.60;99.90
10512;DHT22;5304;48.604;2.096;2024-03-06T16:14:31;10.30;99.90
10512;DHT22;5304;48.604;2.096;2024-03-06T16:17:15;10.40;99.90
10512;DHT22;5304;48.604;2.096;2024-03-06T16:19:59;10.30;99.90
10512;DHT22;5304;48.604;2.096;2024-03-06T16:22:44;10.40;99.90
10512;DHT22;5304;48.604;2.096;2024-03-06T16:25:28;10.40;99.90
10512;DHT22;5304;48.604;2.096;2024-03-06T16:28:13;10.30;99.90
10512;DHT22;5304;48.604;2.096;2024-03-06T16:30:57;10.10;99.90
10512;DHT22;5304;48.604;2.096;2024-03-06T16:33:42;10.00;99.90
10512;DHT22;5304;48.604;2.096;2024-03-06T16:36:28;10.20;99.90
10512;DHT22;5304;48.604;2.096;2024-03-06T16:39:12;10.00;99.90
10512;DHT22;5304;48.604;2.096;2024-03-06T16:41:57;10.00;99.90
10512;DHT22;5304;48.604;2.096;2024-03-06T16:44:41;10.00;99.90
10512;DHT22;5304;48.604;2.096;2024-03-06T16:47:25;10.00;99.90
10512;DHT22;5304;48.604;2.096;2024-03-06T16:50:10;10.00;99.90
10512;DHT22;5304;48.604;2.096;2024-03-06T16:52:55;9.90;99.90
10512;DHT22;5304;48.604;2.096;2024-03-06T16:55:40;9.90;99.90
10512;DHT22;5304;48.604;2.096;2024-03-06T16:58:25;9.90;99.90
10512;DHT22;5304;48.604;2.096;2024-03-06T17:01:09;9.80;99.90
10512;DHT22;5304;48.604;2.096;2024-03-06T17:03:54;9.80;99.90
10512;DHT22;5304;48.604;2.096;2024-03-06T17:06:38;9.70;99.90
10512;DHT22;5304;48.604;2.096;2024-03-06T17:09:23;9.70;99.90
10512;DHT22;5304;48.604;2.096;2024-03-06T17:12:07;9.70;99.90
10512;DHT22;5304;48.604;2.096;2024-03-06T17:14:52;9.80;99.90
10512;DHT22;5304;48.604;2.096;2024-03-06T17:17:36;9.70;99.90
10512;DHT22;5304;48.604;2.096;2024-03-06T17:20:20;9.60;99.90
10512;DHT22;5304;48.604;2.096;2024-03-06T17:23:05;9.60;99.90
10512;DHT22;5304;48.604;2.096;2024-03-06T17:25:49;9.60;99.90
10512;DHT22;5304;48.604;2.096;2024-03-06T17:28:33;9.60;99.90
10512;DHT22;5304;48.604;2.096;2024-03-06T17:31:18;9.70;99.90
10512;DHT22;5304;48.604;2.096;2024-03-06T17:34:02;9.60;99.90
10512;DHT22;5304;48.604;2.096;2024-03-06T17:36:46;9.60;99.90
10512;DHT22;5304;48.604;2.096;2024-03-06T17:39:31;9.70;99.90
10512;DHT22;5304;48.604;2.096;2024-03-06T17:42:15;9.60;99.90
10512;DHT22;5304;48.604;2.096;2024-03-06T17:44:59;9.70;99.90
10512;DHT22;5304;48.604;2.096;2024-03-06T17:47:44;9.60;99.90
10512;DHT22;5304;48.604;2.096;2024-03-06T17:50:29;9.50;99.90
10512;DHT22;5304;48.604;2.096;2024-03-06T17:53:14;9.60;99.90
10512;DHT22;5304;48.604;2.096;2024-03-06T17:55:59;9.50;99.90
10512;DHT22;5304;48.604;2.096;2024-03-06T17:58:46;9.30;99.90
10512;DHT22;5304;48.604;2.096;2024-03-06T18:01:30;9.30;99.90
10512;DHT22;5304;48.604;2.096;2024-03-06T18:04:18;9.20;99.90
10512;DHT22;5304;48.604;2.096;2024-03-06T18:07:03;9.00;99.90
10512;DHT22;5304;48.604;2.096;2024-03-06T18:09:47;9.10;99.90
10512;DHT22;5304;48.604;2.096;2024-03-06T18:12:34;9.00;99.90
10512;DHT22;5304;48.604;2.096;2024-03-06T18:15:18;8.90;99.90
10512;DHT22;5304;48.604;2.096;2024-03-06T18:18:03;8.80;99.90
10512;DHT22;5304;48.604;2.096;2024-03-06T18:20:47;8.80;99.90
10512;DHT22;5304;48.604;2.096;2024-03-06T18:23:32;8.80;99.90
10512;DHT22;5304;48.604;2.096;2024-03-06T18:26:19;8.70;99.90
10512;DHT22;5304;48.604;2.096;2024-03-06T18:29:03;8.60;99.90
10512;DHT22;5304;48.604;2.096;2024-03-06T18:31:48;8.60;99.90
10512;DHT22;5304;48.604;2.096;2024-03-06T18:34:33;8.50;99.90
10512;DHT22;5304;48.604;2.096;2024-03-06T18:37:18;8.40;99.90
10512;DHT22;5304;48.604;2.096;2024-03-06T18:40:02;8.40;99.90
10512;DHT22;5304;48.604;2.096;2024-03-06T18:42:47;8.40;99.90
10512;DHT22;5304;48.604;2.096;2024-03-06T18:45:31;8.30;99.90
10512;DHT22;5304;48.604;2.096;2024-03-06T18:48:15;8.30;99.90
10512;DHT22;5304;48.604;2.096;2024-03-06T18:51:00;8.30;99.90
10512;DHT22;5304;48.604;2.096;2024-03-06T18:53:45;8.10;99.90
10512;DHT22;5304;48.604;2.096;2024-03-06T18:56:30;8.10;99.90
10512;DHT22;5304;48.604;2.096;2024-03-06T18:59:14;8.10;99.90
10512;DHT22;5304;48.604;2.096;2024-03-06T19:01:58;8.00;99.90
10512;DHT22;5304;48.604;2.096;2024-03-06T19:04:43;7.90;99.90
10512;DHT22;5304;48.604;2.096;2024-03-06T19:07:29;7.80;99.90
10512;DHT22;5304;48.604;2.096;2024-03-06T19:10:14;7.60;99.90
10512;DHT22;5304;48.604;2.096;2024-03-06T19:12:58;7.50;99.90
10512;DHT22;5304;48.604;2.096;2024-03-06T19:15:42;7.50;99.90
10512;DHT22;5304;48.604;2.096;2024-03-06T19:18:27;7.50;99.90
10512;DHT22;5304;48.604;2.096;2024-03-06T19:21:11;7.60;99.90
10512;DHT22;5304;48.604;2.096;2024-03-06T19:23:56;7.30;99.90
10512;DHT22;5304;48.604;2.096;2024-03-06T19:26:40;7.30;99.90
10512;DHT22;5304;48.604;2.096;2024-03-06T19:29:24;7.20;99.90
10512;DHT22;5304;48.604;2.096;2024-03-06T19:32:09;7.10;99.90
10512;DHT22;5304;48.604;2.096;2024-03-06T19:34:55;7.10;99.90
10512;DHT22;5304;48.604;2.096;2024-03-06T19:37:39;7.10;99.90
10512;DHT22;5304;48.604;2.096;2024-03-06T19:40:23;7.00;99.90
10512;DHT22;5304;48.604;2.096;2024-03-06T19:43:07;7.00;99.90
10512;DHT22;5304;48.604;2.096;2024-03-06T19:45:52;7.00;99.90
10512;DHT22;5304;48.604;2.096;2024-03-06T19:48:36;6.90;99.90
10512;DHT22;5304;48.604;2.096;2024-03-06T19:51:22;6.80;99.90
10512;DHT22;5304;48.604;2.096;2024-03-06T19:54:06;6.70;99.90
10512;DHT22;5304;48.604;2.096;2024-03-06T19:56:51;6.60;99.90
10512;DHT22;5304;48.604;2.096;2024-03-06T19:59:36;6.60;99.90
10512;DHT22;5304;48.604;2.096;2024-03-06T20:02:20;6.60;99.90
10512;DHT22;5304;48.604;2.096;2024-03-06T20:05:05;6.60;99.90
10512;DHT22;5304;48.604;2.096;2024-03-06T20:07:49;6.60;99.90
10512;DHT22;5304;48.604;2.096;2024-03-06T20:10:35;6.60;99.90
10512;DHT22;5304;48.604;2.096;2024-03-06T20:13:19;6.50;99.90
10512;DHT22;5304;48.604;2.096;2024-03-06T20:16:03;6.50;99.90
10512;DHT22;5304;48.604;2.096;2024-03-06T20:18:47;6.50;99.90
10512;DHT22;5304;48.604;2.096;2024-03-06T20:21:32;6.50;99.90
10512;DHT22;5304;48.604;2.096;2024-03-06T20:24:20;6.40;99.90
10512;DHT22;5304;48.604;2.096;2024-03-06T20:27:08;6.30;99.90
10512;DHT22;5304;48.604;2.096;2024-03-06T20:29:52;6.40;99.90
10512;DHT22;5304;48.604;2.096;2024-03-06T20:32:38;6.20;99.90
10512;DHT22;5304;48.604;2.096;2024-03-06T20:35:23;6.20;99.90
10512;DHT22;5304;48.604;2.096;2024-03-06T20:38:07;6.30;99.90
10512;DHT22;5304;48.604;2.096;2024-03-06T20:40:54;6.10;99.90
10512;DHT22;5304;48.604;2.096;2024-03-06T20:43:39;6.20;99.90
10512;DHT22;5304;48.604;2.096;2024-03-06T20:46:23;6.20;99.90
10512;DHT22;5304;48.604;2.096;2024-03-06T20:49:07;6.20;99.90
10512;DHT22;5304;48.604;2.096;2024-03-06T20:51:51;6.10;99.90
10512;DHT22;5304;48.604;2.096;2024-03-06T20:54:36;6.10;99.90
10512;DHT22;5304;48.604;2.096;2024-03-06T20:57:20;6.00;99.90
10512;DHT22;5304;48.604;2.096;2024-03-06T21:00:04;6.00;99.90
10512;DHT22;5304;48.604;2.096;2024-03-06T21:02:55;6.00;99.90
10512;DHT22;5304;48.604;2.096;2024-03-06T21:05:39;5.90;99.90
10512;DHT22;5304;48.604;2.096;2024-03-06T21:08:24;5.80;99.90
10512;DHT22;5304;48.604;2.096;2024-03-06T21:11:08;5.80;99.90
10512;DHT22;5304;48.604;2.096;2024-03-06T21:13:52;5.80;99.90
10512;DHT22;5304;48.604;2.096;2024-03-06T21:16:39;5.60;99.90
10512;DHT22;5304;48.604;2.096;2024-03-06T21:19:23;5.40;99.90
10512;DHT22;5304;48.604;2.096;2024-03-06T21:22:08;5.20;99.90
10512;DHT22;5304;48.604;2.096;2024-03-06T21:24:52;5.20;99.90
10512;DHT22;5304;48.604;2.096;2024-03-06T21:27:38;5.20;99.90
10512;DHT22;5304;48.604;2.096;2024-03-06T21:30:27;5.30;99.90
10512;DHT22;5304;48.604;2.096;2024-03-06T21:33:11;5.30;99.90
10512;DHT22;5304;48.604;2.096;2024-03-06T21:35:56;5.30;99.90
10512;DHT22;5304;48.604;2.096;2024-03-06T21:38:40;5.20;99.90
10512;DHT22;5304;48.604;2.096;2024-03-06T21:41:24;5.30;99.90
10512;DHT22;5304;48.604;2.096;2024-03-06T21:44:09;5.30;99.90
10512;DHT22;5304;48.604;2.096;2024-03-06T21:46:53;5.30;99.90
10512;DHT22;5304;48.604;2.096;2024-03-06T21:49:37;5.20;99.90
